Time;durP1;ratioP1;P1;durP2;ratioP2;P2;SDS_P1;SDS_P2;PMS_P1;PMS_P2;Temp;Humidity;BMP_temperature;BMP_pressure;BME280_temperature;BME280_humidity;BME280_pressure;Samples;Min_cycle;Max_cycle;Signal;HPM_P1;HPM_P2
2021/10/07 00:01:21;;;;;;;3.70;3.33;;;9.70;90.60;;;;;;5087088;28;20222;-86
2021/10/07 00:03:48;;;;;;;4.85;3.30;;;9.80;90.60;;;;;;5081860;28;20771;-87
2021/10/07 00:06:17;;;;;;;5.03;3.13;;;9.90;90.50;;;;;;5088282;28;20212;-89
2021/10/07 00:08:44;;;;;;;3.50;3.00;;;9.80;90.60;;;;;;5073626;28;20301;-86
2021/10/07 00:11:12;;;;;;;4.55;3.58;;;9.90;90.70;;;;;;5071097;28;20203;-87
2021/10/07 00:13:39;;;;;;;3.88;2.90;;;9.90;90.70;;;;;;5087188;28;20224;-86
2021/10/07 00:16:07;;;;;;;2.10;1.20;;;9.90;90.70;;;;;;5082741;28;20203;-86
2021/10/07 00:18:37;;;;;;;4.15;2.80;;;9.80;90.60;;;;;;5078597;28;20229;-87
2021/10/07 00:21:04;;;;;;;4.13;3.38;;;9.70;90.60;;;;;;5075552;28;20199;-86
2021/10/07 00:23:36;;;;;;;5.72;2.78;;;9.70;90.60;;;;;;5069723;28;20711;-86
2021/10/07 00:26:04;;;;;;;3.90;2.20;;;9.60;90.60;;;;;;5073939;28;20862;-88
2021/10/07 00:28:32;;;;;;;2.80;2.22;;;9.60;91.00;;;;;;5074148;28;20683;-91
2021/10/07 00:31:02;;;;;;;5.18;3.30;;;9.50;91.00;;;;;;5073101;28;21038;-86
2021/10/07 00:33:35;;;;;;;2.20;2.00;;;9.50;91.30;;;;;;5071486;28;20220;-87
2021/10/07 00:36:10;;;;;;;1.88;1.45;;;9.40;91.00;;;;;;5074908;28;20582;-87
2021/10/07 00:41:27;;;;;;;2.35;1.13;;;9.10;91.40;;;;;;5071256;28;20203;-87
2021/10/07 00:43:54;;;;;;;1.30;1.20;;;8.90;92.20;;;;;;5074368;28;20298;-88
2021/10/07 00:46:21;;;;;;;3.10;2.60;;;8.90;92.50;;;;;;5069734;28;20230;-88
2021/10/07 00:48:48;;;;;;;3.13;2.40;;;9.00;92.70;;;;;;5073461;28;20229;-87
2021/10/07 00:51:15;;;;;;;2.42;1.63;;;9.10;92.40;;;;;;5075781;28;20208;-87
2021/10/07 00:53:44;;;;;;;2.33;1.20;;;9.10;92.10;;;;;;5075461;28;20231;-88
2021/10/07 00:56:11;;;;;;;2.25;2.03;;;9.10;92.10;;;;;;5081445;28;20208;-86
2021/10/07 00:58:40;;;;;;;3.97;1.80;;;9.10;92.50;;;;;;5080033;28;20418;-86
2021/10/07 01:01:07;;;;;;;2.15;1.30;;;9.20;92.50;;;;;;5063837;28;20194;-89
2021/10/07 01:03:36;;;;;;;1.33;1.20;;;9.10;92.30;;;;;;5072596;28;20218;-86
2021/10/07 01:06:03;;;;;;;2.35;1.30;;;9.00;92.40;;;;;;5083842;28;20221;-86
2021/10/07 01:08:30;;;;;;;3.92;1.33;;;9.00;92.60;;;;;;5069782;28;20213;-87
2021/10/07 01:10:59;;;;;;;3.20;1.50;;;8.90;93.20;;;;;;5070523;28;20206;-87
2021/10/07 01:13:27;;;;;;;3.65;2.00;;;9.00;93.20;;;;;;5067311;28;20231;-87
2021/10/07 01:16:00;;;;;;;2.05;1.60;;;9.10;93.70;;;;;;5074794;28;20208;-86
2021/10/07 01:18:27;;;;;;;2.35;1.90;;;9.30;92.90;;;;;;5071293;28;20227;-86
2021/10/07 01:20:55;;;;;;;2.13;1.80;;;9.40;92.80;;;;;;5072951;28;20202;-88
2021/10/07 01:23:25;;;;;;;3.13;2.05;;;9.50;92.80;;;;;;5073595;28;20254;-87
2021/10/07 01:25:52;;;;;;;4.25;2.13;;;9.50;92.80;;;;;;5068715;28;20225;-90
2021/10/07 01:28:20;;;;;;;2.58;1.63;;;9.60;92.40;;;;;;5063194;28;20222;-87
2021/10/07 01:30:47;;;;;;;2.38;1.38;;;9.50;91.90;;;;;;5063752;28;20195;-86
2021/10/07 01:33:14;;;;;;;3.20;2.08;;;9.50;91.70;;;;;;5065335;28;20236;-86
2021/10/07 01:35:41;;;;;;;2.92;2.00;;;9.50;91.90;;;;;;5073228;28;20194;-86
2021/10/07 01:38:10;;;;;;;2.47;1.70;;;9.50;91.70;;;;;;5091442;28;20231;-89
2021/10/07 01:40:37;;;;;;;2.33;1.95;;;9.60;91.60;;;;;;5079893;28;20581;-88
2021/10/07 01:43:04;;;;;;;1.90;1.73;;;9.60;91.60;;;;;;5076912;28;20590;-88
2021/10/07 01:45:31;;;;;;;3.92;1.27;;;9.60;91.60;;;;;;5079779;28;20233;-86
2021/10/07 01:47:58;;;;;;;2.78;1.70;;;9.60;91.50;;;;;;5072926;28;20217;-86
2021/10/07 01:50:25;;;;;;;2.65;2.05;;;9.60;91.40;;;;;;5085010;28;20196;-86
2021/10/07 01:52:52;;;;;;;1.52;1.42;;;9.60;91.80;;;;;;5078836;28;20578;-88
2021/10/07 01:55:20;;;;;;;3.90;2.00;;;9.60;91.80;;;;;;5074890;28;20197;-86
2021/10/07 01:57:47;;;;;;;3.08;1.80;;;9.70;91.80;;;;;;5086161;28;20239;-92
2021/10/07 02:00:15;;;;;;;2.80;2.00;;;9.70;91.60;;;;;;5064424;28;20201;-87
2021/10/07 02:02:42;;;;;;;2.65;1.98;;;9.70;91.90;;;;;;5078063;28;20228;-88
2021/10/07 02:05:10;;;;;;;2.60;2.00;;;9.70;91.90;;;;;;5070939;28;20201;-86
2021/10/07 02:07:40;;;;;;;2.25;1.98;;;9.80;91.80;;;;;;5052944;28;20223;-86
2021/10/07 02:10:14;;;;;;;2.90;1.60;;;9.80;91.90;;;;;;5062652;28;20204;-86
2021/10/07 02:12:44;;;;;;;1.60;1.50;;;9.80;91.80;;;;;;5070542;28;20221;-89
2021/10/07 02:15:11;;;;;;;4.95;1.50;;;9.80;91.80;;;;;;5079562;28;20262;-89
2021/10/07 02:17:39;;;;;;;1.15;1.05;;;9.70;91.70;;;;;;5078422;28;20239;-86
2021/10/07 02:20:09;;;;;;;1.70;1.20;;;9.60;91.80;;;;;;5066419;28;20200;-86
2021/10/07 02:22:37;;;;;;;2.75;1.42;;;9.60;92.40;;;;;;5080216;28;20233;-87
2021/10/07 02:25:06;;;;;;;2.30;1.40;;;9.60;92.40;;;;;;5088061;28;20197;-86
2021/10/07 02:27:33;;;;;;;3.78;2.00;;;9.60;92.50;;;;;;5090223;28;20238;-87
2021/10/07 02:30:02;;;;;;;1.85;1.40;;;9.70;92.80;;;;;;5070984;28;20201;-87
2021/10/07 02:32:29;;;;;;;1.30;1.20;;;9.70;92.10;;;;;;5071318;28;20608;-87
2021/10/07 02:34:56;;;;;;;1.98;1.40;;;9.70;92.30;;;;;;5067066;28;20205;-87
2021/10/07 02:37:24;;;;;;;1.17;1.10;;;9.80;92.20;;;;;;5053338;28;20776;-87
2021/10/07 02:39:51;;;;;;;1.77;1.33;;;9.70;92.10;;;;;;5075382;28;20218;-87
2021/10/07 02:42:18;;;;;;;1.63;1.13;;;9.50;92.20;;;;;;5074295;28;20641;-88
2021/10/07 02:44:45;;;;;;;3.35;1.70;;;9.40;92.70;;;;;;5059061;28;20206;-86
2021/10/07 02:47:13;;;;;;;1.73;1.10;;;9.50;92.80;;;;;;5054998;28;20236;-88
2021/10/07 02:49:40;;;;;;;2.45;1.05;;;9.50;92.50;;;;;;5075559;28;20216;-91
2021/10/07 02:52:07;;;;;;;3.88;1.30;;;9.50;92.90;;;;;;5071197;28;20232;-86
2021/10/07 02:54:34;;;;;;;2.08;1.35;;;9.50;92.90;;;;;;5051562;28;20292;-87
2021/10/07 02:57:02;;;;;;;1.40;1.30;;;9.50;92.20;;;;;;5070495;28;20224;-86
2021/10/07 02:59:28;;;;;;;1.58;1.23;;;9.50;92.60;;;;;;5087612;28;20197;-87
2021/10/07 03:01:55;;;;;;;2.05;1.05;;;9.50;92.40;;;;;;5081610;28;20200;-87
2021/10/07 03:04:24;;;;;;;4.70;1.40;;;9.40;92.50;;;;;;5076651;28;20201;-88
2021/10/07 03:06:51;;;;;;;1.33;1.27;;;9.50;92.80;;;;;;5086937;28;20228;-88
2021/10/07 03:09:18;;;;;;;2.83;1.20;;;9.60;92.40;;;;;;5053869;28;20634;-86
2021/10/07 03:11:48;;;;;;;1.95;1.42;;;9.50;92.80;;;;;;5078679;28;20208;-88
2021/10/07 03:14:15;;;;;;;1.70;1.48;;;9.50;92.90;;;;;;5081918;28;20222;-87
2021/10/07 03:16:42;;;;;;;2.90;1.83;;;9.50;92.80;;;;;;5053486;28;20206;-88
2021/10/07 03:19:09;;;;;;;2.35;1.60;;;9.50;92.80;;;;;;5071983;28;20208;-87
2021/10/07 03:21:38;;;;;;;1.40;1.30;;;9.60;92.50;;;;;;5082776;28;20202;-86
2021/10/07 03:24:06;;;;;;;3.55;1.50;;;9.50;92.70;;;;;;5082267;28;20195;-88
2021/10/07 03:26:33;;;;;;;2.95;1.38;;;9.50;92.70;;;;;;5085220;28;20641;-87
2021/10/07 03:29:02;;;;;;;1.40;1.30;;;9.40;92.90;;;;;;5075617;28;20224;-86
2021/10/07 03:31:29;;;;;;;2.10;1.40;;;9.30;93.00;;;;;;5075434;28;20272;-87
2021/10/07 03:33:56;;;;;;;3.05;1.75;;;9.20;93.10;;;;;;5077038;28;20224;-86
2021/10/07 03:36:23;;;;;;;1.30;1.20;;;9.30;93.30;;;;;;5082809;28;20695;-86
2021/10/07 03:38:51;;;;;;;2.97;1.52;;;9.30;93.30;;;;;;5084710;28;20221;-89
2021/10/07 03:41:18;;;;;;;1.38;1.27;;;9.40;93.30;;;;;;5083270;28;20201;-87
2021/10/07 03:43:45;;;;;;;2.35;1.50;;;9.50;93.00;;;;;;5076872;28;20232;-87
2021/10/07 03:46:12;;;;;;;1.73;1.20;;;9.50;93.20;;;;;;5067480;28;20224;-85
2021/10/07 03:48:40;;;;;;;2.08;1.40;;;9.50;92.90;;;;;;5061939;28;20305;-87
2021/10/07 03:51:07;;;;;;;1.83;1.40;;;9.60;92.90;;;;;;5046394;28;20204;-87
2021/10/07 03:53:34;;;;;;;1.40;1.30;;;9.60;92.90;;;;;;5061993;28;20230;-87
2021/10/07 03:56:02;;;;;;;2.78;1.40;;;9.70;92.90;;;;;;5077209;28;20204;-87
2021/10/07 03:58:29;;;;;;;1.83;1.23;;;9.70;92.80;;;;;;5072927;28;20222;-87
2021/10/07 04:00:59;;;;;;;2.15;1.50;;;9.70;92.70;;;;;;5090744;28;20203;-86
2021/10/07 04:03:26;;;;;;;1.80;1.27;;;9.70;92.90;;;;;;5079064;28;20223;-87
2021/10/07 04:05:54;;;;;;;1.85;1.48;;;9.50;92.80;;;;;;5066479;28;20208;-88
2021/10/07 04:08:21;;;;;;;2.25;1.60;;;9.40;93.10;;;;;;5087566;28;20227;-87
2021/10/07 04:10:50;;;;;;;1.92;1.50;;;9.40;93.50;;;;;;5081520;28;20198;-87
2021/10/07 04:13:19;;;;;;;3.13;1.60;;;9.50;93.30;;;;;;5059754;28;20220;-87
2021/10/07 04:15:47;;;;;;;1.63;1.48;;;9.60;93.40;;;;;;5076734;28;20296;-87
2021/10/07 04:18:14;;;;;;;1.63;1.42;;;9.70;93.30;;;;;;5083381;28;20224;-88
2021/10/07 04:20:42;;;;;;;2.03;1.80;;;9.70;93.40;;;;;;5065746;28;20607;-91
2021/10/07 04:23:09;;;;;;;2.13;1.50;;;9.90;93.20;;;;;;5071705;28;20212;-86
2021/10/07 04:25:36;;;;;;;1.52;1.40;;;9.90;93.10;;;;;;5076816;28;20268;-86
2021/10/07 04:28:06;;;;;;;1.75;1.63;;;9.80;93.10;;;;;;5067464;28;20283;-87
2021/10/07 04:30:35;;;;;;;3.28;2.83;;;9.90;93.40;;;;;;5081520;28;20209;-86
2021/10/07 04:33:02;;;;;;;3.70;3.40;;;9.90;93.80;;;;;;5075002;28;20688;-87
2021/10/07 04:35:29;;;;;;;3.38;3.00;;;10.10;93.30;;;;;;5062017;28;20209;-86
2021/10/07 04:37:57;;;;;;;1.70;1.42;;;10.20;93.00;;;;;;5075849;28;20236;-86
2021/10/07 04:40:24;;;;;;;2.08;1.83;;;10.20;92.20;;;;;;5086159;28;20272;-86
2021/10/07 04:42:51;;;;;;;5.72;2.65;;;10.10;92.40;;;;;;5086751;28;20226;-86
2021/10/07 04:45:18;;;;;;;3.05;2.42;;;10.00;92.70;;;;;;5090507;28;20193;-88
2021/10/07 04:47:46;;;;;;;3.85;2.00;;;9.90;93.60;;;;;;5082293;28;20229;-85
2021/10/07 04:50:14;;;;;;;2.78;1.50;;;9.90;93.40;;;;;;5077121;28;20921;-87
2021/10/07 04:52:41;;;;;;;2.15;1.50;;;9.70;93.40;;;;;;5087975;28;20229;-86
2021/10/07 04:55:09;;;;;;;1.98;1.60;;;9.60;93.90;;;;;;5078128;28;20667;-85
2021/10/07 04:57:37;;;;;;;2.38;2.10;;;9.60;95.00;;;;;;5093989;28;20235;-85
2021/10/07 05:00:04;;;;;;;4.25;2.97;;;9.80;94.90;;;;;;5080390;28;20201;-86
2021/10/07 05:02:31;;;;;;;2.85;2.10;;;10.00;94.40;;;;;;5088174;28;20231;-86
2021/10/07 05:05:03;;;;;;;3.22;2.53;;;10.10;93.40;;;;;;5080534;28;20198;-87
2021/10/07 05:07:30;;;;;;;4.00;1.83;;;10.20;93.10;;;;;;5082680;28;20270;-87
2021/10/07 05:09:57;;;;;;;3.10;2.13;;;10.30;92.70;;;;;;5081035;28;20268;-85
2021/10/07 05:12:24;;;;;;;3.22;2.10;;;10.30;92.50;;;;;;5055197;28;20240;-86
2021/10/07 05:14:51;;;;;;;8.13;2.50;;;10.40;92.40;;;;;;5094710;28;20213;-86
2021/10/07 05:17:18;;;;;;;3.33;2.40;;;10.40;92.30;;;;;;5066405;28;20220;-87
2021/10/07 05:19:45;;;;;;;4.55;2.15;;;10.60;91.90;;;;;;5081690;28;20224;-87
2021/10/07 05:22:14;;;;;;;2.33;1.90;;;10.80;91.80;;;;;;5056794;28;20225;-89
2021/10/07 05:25:04;;;;;;;1.88;1.70;;;10.80;91.30;;;;;;5075303;28;20256;-86
2021/10/07 05:27:32;;;;;;;5.30;1.70;;;10.90;91.30;;;;;;5097703;28;20230;-86
2021/10/07 05:29:59;;;;;;;5.15;1.50;;;10.90;91.10;;;;;;5078330;28;20664;-87
2021/10/07 05:32:27;;;;;;;3.17;1.70;;;10.80;90.50;;;;;;5075572;28;20238;-87
2021/10/07 05:34:54;;;;;;;3.25;1.70;;;10.80;90.50;;;;;;5082800;28;20216;-85
2021/10/07 05:37:23;;;;;;;2.03;1.80;;;10.80;90.50;;;;;;5071223;28;20253;-86
2021/10/07 05:39:51;;;;;;;2.88;1.90;;;10.90;91.20;;;;;;5086691;28;20198;-87
2021/10/07 05:42:19;;;;;;;4.47;2.15;;;11.00;90.50;;;;;;5077181;28;20888;-89
2021/10/07 05:44:46;;;;;;;4.20;1.90;;;11.00;90.50;;;;;;5083295;28;20200;-87
2021/10/07 05:47:14;;;;;;;1.90;1.70;;;10.80;90.90;;;;;;5058327;28;20308;-89
2021/10/07 05:49:42;;;;;;;4.53;2.10;;;10.90;90.50;;;;;;5086897;28;20205;-89
2021/10/07 05:52:10;;;;;;;4.88;2.05;;;10.90;90.80;;;;;;5073799;28;20226;-89
2021/10/07 05:54:39;;;;;;;2.90;2.00;;;11.00;90.50;;;;;;5079809;28;20226;-87
2021/10/07 05:57:06;;;;;;;3.45;2.65;;;11.00;90.50;;;;;;5078772;28;20256;-88
2021/10/07 05:59:33;;;;;;;3.60;2.15;;;11.10;90.50;;;;;;5078667;28;20208;-89
2021/10/07 06:02:00;;;;;;;3.55;2.30;;;11.10;90.50;;;;;;5083107;28;20289;-87
2021/10/07 06:04:27;;;;;;;4.50;2.30;;;11.20;90.50;;;;;;5091538;28;20240;-87
2021/10/07 06:06:55;;;;;;;2.85;1.92;;;11.10;90.50;;;;;;5085734;28;20227;-87
2021/10/07 06:09:22;;;;;;;2.55;2.10;;;11.00;90.30;;;;;;5090516;28;20194;-89
2021/10/07 06:11:51;;;;;;;4.80;2.30;;;10.90;90.60;;;;;;5063168;28;20202;-87
2021/10/07 06:14:18;;;;;;;4.40;2.10;;;10.80;90.50;;;;;;5091872;28;20248;-86
2021/10/07 06:16:46;;;;;;;2.45;2.00;;;10.60;90.40;;;;;;5088780;28;20211;-87
2021/10/07 06:19:16;;;;;;;2.83;2.25;;;10.70;90.40;;;;;;5087697;28;20198;-87
2021/10/07 06:21:43;;;;;;;3.03;2.10;;;10.80;90.50;;;;;;5089621;28;20205;-87
2021/10/07 06:24:10;;;;;;;8.07;2.30;;;11.00;90.00;;;;;;5087021;28;20193;-86
2021/10/07 06:26:37;;;;;;;2.92;1.98;;;11.10;88.90;;;;;;5097034;28;20221;-88
2021/10/07 06:29:08;;;;;;;4.60;2.13;;;11.20;88.50;;;;;;5087825;28;20296;-86
2021/10/07 06:31:35;;;;;;;5.07;2.00;;;11.30;89.50;;;;;;5090571;28;20231;-86
2021/10/07 06:34:02;;;;;;;6.00;1.92;;;11.50;87.40;;;;;;5079224;28;20283;-87
2021/10/07 06:36:29;;;;;;;3.38;1.90;;;11.70;84.50;;;;;;5092807;28;20257;-86
2021/10/07 06:38:56;;;;;;;9.38;1.90;;;11.80;83.70;;;;;;5099643;28;20234;-87
2021/10/07 06:41:23;;;;;;;2.17;1.77;;;11.90;83.10;;;;;;5077860;28;20265;-90
2021/10/07 06:43:51;;;;;;;2.60;1.88;;;12.00;82.50;;;;;;5093856;28;20297;-88
2021/10/07 06:46:19;;;;;;;2.97;2.10;;;12.00;81.80;;;;;;5083942;28;20269;-86
2021/10/07 06:48:46;;;;;;;3.33;2.05;;;12.00;80.10;;;;;;5080239;28;20236;-88
2021/10/07 06:51:14;;;;;;;4.65;2.10;;;12.10;80.80;;;;;;5086127;28;20207;-88
2021/10/07 06:53:41;;;;;;;3.90;1.95;;;12.00;81.00;;;;;;5078675;28;20231;-87
2021/10/07 06:56:09;;;;;;;3.92;2.10;;;12.00;81.00;;;;;;5087553;28;20656;-87
2021/10/07 06:58:36;;;;;;;5.63;2.40;;;11.80;81.80;;;;;;5083414;28;20229;-88
2021/10/07 07:01:03;;;;;;;6.78;2.30;;;11.70;82.60;;;;;;5079001;28;20267;-87
2021/10/07 07:03:31;;;;;;;4.00;2.22;;;11.70;82.80;;;;;;5087437;28;20276;-90
2021/10/07 07:05:58;;;;;;;5.03;2.33;;;11.70;83.70;;;;;;5081196;28;20211;-88
2021/10/07 07:08:25;;;;;;;5.82;2.13;;;11.70;81.70;;;;;;5074876;28;20226;-89
2021/10/07 07:10:53;;;;;;;4.25;2.20;;;11.70;83.70;;;;;;5072785;28;20204;-87
2021/10/07 07:13:20;;;;;;;2.83;2.15;;;11.90;81.40;;;;;;5082252;28;20220;-87
2021/10/07 07:15:47;;;;;;;4.18;2.17;;;12.00;81.00;;;;;;5093367;28;20223;-88
2021/10/07 07:18:14;;;;;;;3.17;2.10;;;11.90;81.10;;;;;;5072878;28;20284;-88
2021/10/07 07:20:44;;;;;;;4.32;2.60;;;11.80;82.20;;;;;;5077590;28;20197;-88
2021/10/07 07:23:11;;;;;;;3.33;2.17;;;11.80;80.40;;;;;;5077096;28;20321;-88
2021/10/07 07:25:38;;;;;;;3.25;1.90;;;11.80;80.60;;;;;;5075737;28;20644;-88
2021/10/07 07:28:06;;;;;;;5.70;2.10;;;11.90;79.40;;;;;;5087655;28;20228;-87
2021/10/07 07:30:33;;;;;;;2.97;1.85;;;11.90;78.50;;;;;;5085467;28;20219;-91
2021/10/07 07:33:01;;;;;;;4.55;2.08;;;12.10;79.10;;;;;;5075076;28;20285;-88
2021/10/07 07:35:31;;;;;;;2.45;1.90;;;12.00;78.20;;;;;;5098070;28;20201;-87
2021/10/07 07:38:01;;;;;;;3.45;2.33;;;12.10;78.50;;;;;;5084511;28;20225;-87
2021/10/07 07:40:29;;;;;;;3.58;2.05;;;12.10;77.60;;;;;;5095607;28;20200;-87
2021/10/07 07:42:56;;;;;;;3.20;2.50;;;12.10;78.60;;;;;;5080792;28;20762;-87
2021/10/07 07:45:24;;;;;;;3.38;2.00;;;12.10;78.70;;;;;;5075769;28;20290;-87
2021/10/07 07:47:51;;;;;;;4.90;2.53;;;12.20;78.10;;;;;;5071817;28;20253;-88
2021/10/07 07:50:19;;;;;;;4.70;2.40;;;12.20;78.10;;;;;;5089436;28;20268;-87
2021/10/07 07:52:46;;;;;;;5.00;2.45;;;12.20;77.20;;;;;;5077459;28;20684;-89
2021/10/07 07:55:16;;;;;;;2.70;2.13;;;12.00;77.60;;;;;;5086906;28;20211;-87
2021/10/07 07:57:43;;;;;;;3.45;1.98;;;12.10;79.30;;;;;;5082173;28;20233;-90
2021/10/07 08:00:11;;;;;;;6.03;2.58;;;12.10;77.70;;;;;;5079077;28;20659;-87
2021/10/07 08:02:39;;;;;;;3.95;2.25;;;12.10;78.60;;;;;;5067555;28;20225;-87
2021/10/07 08:05:07;;;;;;;6.60;2.40;;;12.10;78.90;;;;;;5079696;28;20296;-87
2021/10/07 08:07:35;;;;;;;3.75;2.40;;;12.20;78.50;;;;;;5083371;28;20255;-87
2021/10/07 08:10:03;;;;;;;3.85;2.60;;;12.50;77.70;;;;;;5083107;28;20230;-87
2021/10/07 08:12:33;;;;;;;4.75;2.60;;;12.60;75.60;;;;;;5081882;28;20229;-88
2021/10/07 08:15:10;;;;;;;3.80;2.28;;;12.60;75.50;;;;;;5085732;28;20260;-88
2021/10/07 08:17:39;;;;;;;5.82;2.65;;;12.60;75.60;;;;;;5076202;28;20251;-87
2021/10/07 08:21:06;;;;;;;5.78;2.80;;;12.70;75.70;;;;;;5092003;28;20208;-88
2021/10/07 08:26:35;;;;;;;5.50;2.70;;;13.00;75.90;;;;;;5088485;28;20215;-88
2021/10/07 08:29:04;;;;;;;4.97;2.50;;;13.10;75.10;;;;;;5095345;28;20236;-91
2021/10/07 08:31:33;;;;;;;3.63;2.13;;;13.10;70.10;;;;;;5084893;28;20201;-88
2021/10/07 08:34:01;;;;;;;4.22;2.50;;;12.90;70.60;;;;;;5090089;28;20260;-88
2021/10/07 08:36:29;;;;;;;3.97;2.58;;;12.70;72.50;;;;;;5085164;28;20217;-90
2021/10/07 08:38:56;;;;;;;5.40;2.55;;;12.70;74.00;;;;;;5093080;28;20225;-90
2021/10/07 08:41:23;;;;;;;3.92;2.28;;;12.70;73.80;;;;;;5075350;28;20626;-87
2021/10/07 08:43:53;;;;;;;4.00;2.47;;;12.60;74.10;;;;;;5086206;28;20268;-88
2021/10/07 08:46:22;;;;;;;4.55;2.60;;;13.00;73.00;;;;;;5086794;28;20211;-87
2021/10/07 08:48:51;;;;;;;3.13;2.47;;;13.20;70.40;;;;;;5080871;28;20336;-87
2021/10/07 08:51:18;;;;;;;2.80;2.45;;;13.30;70.30;;;;;;5092774;28;20205;-87
2021/10/07 08:53:45;;;;;;;3.97;2.75;;;13.50;66.70;;;;;;5087775;28;20225;-88
2021/10/07 08:56:12;;;;;;;3.33;2.70;;;13.40;66.70;;;;;;5106000;28;20196;-87
2021/10/07 08:58:40;;;;;;;6.40;2.70;;;13.50;67.00;;;;;;5084749;28;20217;-87
2021/10/07 09:01:07;;;;;;;7.20;2.55;;;13.50;64.90;;;;;;5088674;28;20207;-87
2021/10/07 09:03:42;;;;;;;7.28;2.75;;;13.60;66.50;;;;;;5087284;28;20247;-88
2021/10/07 09:06:12;;;;;;;5.10;2.60;;;13.60;64.90;;;;;;5090915;28;20200;-87
2021/10/07 09:08:47;;;;;;;5.85;2.67;;;13.70;65.90;;;;;;5083508;28;20287;-90
2021/10/07 09:11:35;;;;;;;3.83;2.60;;;13.70;65.00;;;;;;5094732;28;20201;-87
2021/10/07 09:14:03;;;;;;;6.68;3.05;;;13.70;67.50;;;;;;5090820;28;20327;-87
2021/10/07 09:16:34;;;;;;;3.53;2.65;;;13.40;66.90;;;;;;5086471;28;20281;-87
2021/10/07 09:19:18;;;;;;;5.68;3.05;;;13.10;67.20;;;;;;5096072;28;20284;-88
2021/10/07 09:21:46;;;;;;;7.38;3.67;;;13.00;72.30;;;;;;5083939;28;20205;-88
2021/10/07 09:24:32;;;;;;;5.50;3.05;;;12.90;72.30;;;;;;5090892;28;20201;-87
2021/10/07 09:27:20;;;;;;;4.32;3.22;;;12.90;75.10;;;;;;5075576;28;20205;-87
2021/10/07 09:29:51;;;;;;;6.97;3.42;;;12.80;75.10;;;;;;5080714;28;20206;-90
2021/10/07 09:36:34;;;;;;;6.43;2.88;;;12.50;75.50;;;;;;4942744;29;20265;-88
2021/10/07 09:39:09;;;;;;;6.53;2.90;;;12.50;75.50;;;;;;5057905;28;20279;-87
2021/10/07 09:44:23;;;;;;;4.15;3.10;;;12.60;75.50;;;;;;5089780;28;20262;-87
2021/10/07 09:53:50;;;;;;;4.93;3.10;;;12.80;76.00;;;;;;5090741;28;20233;-87
2021/10/07 09:56:58;;;;;;;4.25;3.05;;;12.80;77.60;;;;;;5078204;28;20227;-87
2021/10/07 09:59:27;;;;;;;3.60;3.28;;;12.70;77.50;;;;;;5081852;28;20240;-88
2021/10/07 10:01:55;;;;;;;3.55;3.25;;;13.10;75.90;;;;;;5095183;28;20197;-87
2021/10/07 10:04:23;;;;;;;6.20;2.90;;;13.10;75.90;;;;;;5081732;28;20663;-89
2021/10/07 10:06:50;;;;;;;5.28;2.80;;;13.40;78.60;;;;;;5080913;28;20252;-87
2021/10/07 10:09:17;;;;;;;4.25;2.65;;;13.70;76.40;;;;;;5087139;28;20594;-88
2021/10/07 10:11:44;;;;;;;7.47;3.05;;;13.90;70.00;;;;;;5083383;28;20558;-88
2021/10/07 10:14:13;;;;;;;5.90;2.97;;;14.00;71.10;;;;;;5079153;28;20224;-88
2021/10/07 10:16:41;;;;;;;7.32;3.38;;;14.00;72.30;;;;;;5068743;28;20224;-88
2021/10/07 10:19:10;;;;;;;5.32;3.03;;;13.80;69.30;;;;;;5075737;28;20235;-88
2021/10/07 10:21:40;;;;;;;5.47;3.10;;;13.70;69.60;;;;;;5071278;28;20228;-88
2021/10/07 10:24:09;;;;;;;4.85;2.88;;;13.50;72.10;;;;;;5081202;28;20232;-88
2021/10/07 10:26:37;;;;;;;4.53;3.20;;;13.50;74.00;;;;;;5086886;28;20212;-88
2021/10/07 10:29:18;;;;;;;5.82;3.47;;;13.60;74.40;;;;;;5070156;28;20220;-88
2021/10/07 10:31:51;;;;;;;6.03;3.00;;;13.60;69.20;;;;;;5079423;28;20189;-88
2021/10/07 10:34:20;;;;;;;3.40;2.28;;;13.70;71.30;;;;;;5082840;28;20219;-88
2021/10/07 10:36:48;;;;;;;6.30;3.00;;;13.60;66.00;;;;;;5076419;28;20211;-89
2021/10/07 10:39:18;;;;;;;6.05;2.50;;;13.60;65.80;;;;;;5079452;28;20207;-88
2021/10/07 10:41:54;;;;;;;7.13;3.60;;;13.70;66.30;;;;;;5078362;28;20295;-88
2021/10/07 10:44:49;;;;;;;5.50;3.38;;;13.90;70.20;;;;;;5079154;28;20232;-89
2021/10/07 10:47:24;;;;;;;4.10;3.35;;;13.80;68.20;;;;;;5076234;28;20229;-88
2021/10/07 10:50:04;;;;;;;5.72;3.88;;;13.90;65.60;;;;;;5076260;28;20230;-88
2021/10/07 10:52:33;;;;;;;5.47;3.58;;;13.60;65.00;;;;;;5081882;28;20292;-87
2021/10/07 10:55:02;;;;;;;3.28;2.97;;;13.50;68.60;;;;;;5084871;28;20205;-88
2021/10/07 10:57:32;;;;;;;3.50;3.20;;;13.50;69.00;;;;;;5077028;28;20222;-89
2021/10/07 11:00:11;;;;;;;4.93;3.80;;;13.70;65.50;;;;;;5086263;28;20261;-87
2021/10/07 11:02:41;;;;;;;4.43;3.63;;;13.50;65.10;;;;;;5078357;28;20226;-87
2021/10/07 11:05:15;;;;;;;4.28;3.40;;;13.50;68.40;;;;;;5078968;28;20195;-87
2021/10/07 11:07:42;;;;;;;4.20;3.15;;;13.30;65.10;;;;;;5085272;28;20244;-90
2021/10/07 11:10:17;;;;;;;5.05;3.20;;;13.50;65.20;;;;;;5080580;28;20201;-87
2021/10/07 11:12:49;;;;;;;3.58;3.28;;;13.50;66.30;;;;;;5080057;28;20249;-88
2021/10/07 11:15:18;;;;;;;5.10;3.25;;;13.70;65.30;;;;;;5088252;28;20564;-88
2021/10/07 11:17:48;;;;;;;5.57;3.08;;;13.70;65.50;;;;;;5065850;28;20228;-88
2021/10/07 11:20:17;;;;;;;3.97;3.08;;;13.70;64.50;;;;;;5073096;28;20189;-88
2021/10/07 11:23:16;;;;;;;5.18;2.72;;;13.90;64.30;;;;;;5088214;28;20308;-89
2021/10/07 11:25:47;;;;;;;5.03;2.85;;;14.00;61.50;;;;;;5013626;28;20211;-90
2021/10/07 11:28:14;;;;;;;3.90;3.10;;;13.90;62.70;;;;;;5054878;28;20232;-88
2021/10/07 11:30:44;;;;;;;3.75;2.97;;;13.80;62.80;;;;;;5072719;28;20292;-89
2021/10/07 11:33:13;;;;;;;3.30;2.70;;;13.80;63.20;;;;;;5069388;28;20223;-89
2021/10/07 11:35:40;;;;;;;4.82;3.05;;;14.00;63.00;;;;;;5066921;28;20284;-88
2021/10/07 11:38:12;;;;;;;4.10;3.03;;;13.80;62.90;;;;;;5068623;28;20229;-88
2021/10/07 11:40:44;;;;;;;4.00;3.00;;;13.70;64.30;;;;;;5065618;28;20197;-91
2021/10/07 11:43:13;;;;;;;4.07;2.75;;;13.70;63.20;;;;;;5068035;28;20791;-88
2021/10/07 11:45:42;;;;;;;5.75;2.60;;;13.80;61.00;;;;;;5069027;28;20208;-88
2021/10/07 11:48:10;;;;;;;3.05;2.50;;;13.80;62.70;;;;;;5058039;28;22195;-89
2021/10/07 11:50:41;;;;;;;3.42;2.33;;;13.80;60.10;;;;;;5070299;28;20248;-88
2021/10/07 11:53:11;;;;;;;4.03;2.92;;;13.80;60.40;;;;;;5079061;28;20776;-88
2021/10/07 11:55:41;;;;;;;3.42;2.97;;;13.50;61.90;;;;;;5077616;28;20243;-88
2021/10/07 11:58:09;;;;;;;3.72;3.28;;;13.40;63.60;;;;;;5082067;28;20225;-88
2021/10/07 12:00:44;;;;;;;4.55;3.53;;;13.10;66.70;;;;;;5075337;28;20201;-88
2021/10/07 12:03:18;;;;;;;2.90;2.70;;;13.10;68.20;;;;;;5076543;28;20289;-86
2021/10/07 12:05:50;;;;;;;4.55;3.30;;;13.20;71.50;;;;;;5072218;28;20221;-87
2021/10/07 12:08:18;;;;;;;4.13;3.38;;;13.20;69.40;;;;;;5080676;28;20274;-87
2021/10/07 12:10:48;;;;;;;4.25;3.10;;;13.10;68.10;;;;;;5081038;28;20205;-87
2021/10/07 12:13:17;;;;;;;6.68;3.42;;;13.10;71.90;;;;;;5086238;28;20312;-88
2021/10/07 12:15:48;;;;;;;4.10;3.42;;;13.10;71.40;;;;;;5073875;28;20587;-89
2021/10/07 12:18:16;;;;;;;3.67;3.33;;;13.00;69.60;;;;;;5089028;28;20247;-87
2021/10/07 12:21:06;;;;;;;4.15;3.70;;;13.00;69.10;;;;;;5094445;28;20211;-88
2021/10/07 12:24:01;;;;;;;6.72;3.38;;;12.90;68.40;;;;;;5084504;28;20233;-89
2021/10/07 12:26:40;;;;;;;4.00;3.30;;;13.10;69.40;;;;;;5073013;28;20208;-87
2021/10/07 12:29:15;;;;;;;4.43;3.20;;;13.40;68.90;;;;;;5080856;28;20833;-88
2021/10/07 12:31:48;;;;;;;4.03;3.20;;;13.70;66.40;;;;;;5089774;28;20265;-89
2021/10/07 12:34:16;;;;;;;4.07;3.40;;;13.80;60.70;;;;;;5069921;28;20625;-88
2021/10/07 12:36:46;;;;;;;4.25;3.03;;;13.90;61.40;;;;;;5078617;28;20204;-88
2021/10/07 12:39:23;;;;;;;4.47;3.28;;;14.00;60.00;;;;;;5076967;28;20213;-88
2021/10/07 12:41:51;;;;;;;4.15;3.00;;;14.20;58.90;;;;;;5089924;28;20359;-89
2021/10/07 12:44:21;;;;;;;3.45;2.58;;;14.20;58.70;;;;;;5080582;28;20199;-88
2021/10/07 12:46:49;;;;;;;4.47;2.88;;;14.00;55.90;;;;;;5070641;28;20198;-87
2021/10/07 12:49:16;;;;;;;2.97;2.42;;;13.70;60.00;;;;;;5075908;28;20216;-87
2021/10/07 12:51:49;;;;;;;6.05;2.95;;;13.60;62.80;;;;;;5075387;28;20228;-87
2021/10/07 12:54:18;;;;;;;4.57;2.70;;;13.70;61.60;;;;;;5071443;28;20237;-87
2021/10/07 12:56:47;;;;;;;2.97;2.30;;;13.70;62.40;;;;;;5073952;28;20201;-88
2021/10/07 12:59:14;;;;;;;3.63;2.50;;;14.00;59.60;;;;;;5065203;28;20194;-88
2021/10/07 13:01:45;;;;;;;3.17;2.30;;;14.10;57.70;;;;;;5074699;28;20205;-88
2021/10/07 13:04:18;;;;;;;2.70;2.10;;;14.20;58.80;;;;;;5069297;28;20216;-88
2021/10/07 13:06:46;;;;;;;3.30;2.20;;;14.40;54.10;;;;;;5073684;28;20243;-88
2021/10/07 13:09:15;;;;;;;5.13;2.08;;;14.50;55.80;;;;;;5077239;28;20275;-88
2021/10/07 13:11:42;;;;;;;3.47;1.90;;;14.60;56.60;;;;;;5072364;28;20288;-89
2021/10/07 13:14:10;;;;;;;3.08;2.55;;;14.40;56.00;;;;;;5075599;28;20224;-87
2021/10/07 13:16:37;;;;;;;3.17;2.42;;;14.30;54.80;;;;;;5068066;28;20198;-87
2021/10/07 13:19:04;;;;;;;3.75;2.17;;;14.00;55.00;;;;;;5076100;28;20591;-87
2021/10/07 13:21:31;;;;;;;3.72;2.05;;;14.20;56.50;;;;;;5071215;28;20235;-88